KFOE/FOE METAR and TAF weather

Enter ICAO airport designator
Station Type Date Time Source
KFOE METAR 2021/09/24 02:53 UTC NOAA

KFOE 240253Z 16009KT 10SM CLR 18/09 A2999 RMK AO2 SLP150 T01780094 53001


Station Type Date Time Source
KFOE Decoded METAR 2021/09/24 02:53 UTC NOAA

FORBES FIELD, KS, United States (KFOE) 38-56N 95-39W 320M
Sep 23, 2021 - 10:53 PM EDT / 2021.09.24 0253 UTC
Wind: from the SSE (160 degrees) at 10 MPH (9 KT):0
Visibility: 10 mile(s):0
Sky conditions: clear
Temperature: 64.0 F (17.8 C)
Dew Point: 48.9 F (9.4 C)
Relative Humidity: 57%
Pressure (altimeter): 29.99 in. Hg (1015 hPa)
Pressure tendency: 0.00 inches (0.1 hPa) higher than three hours ago
ob: KFOE 240253Z 16009KT 10SM CLR 18/09 A2999 RMK AO2 SLP150 T01780094 53001
cycle: 3

Station Type Date Time Source
KFOE TAF 2021/09/23 18:24 UTC NOAA

TAF KFOE 231723Z 2318/2418 18009KT P6SM SKC
FM240600 19008KT P6SM SKC WS014/21045KT
FM241500 23014G26KT P6SM FEW200

Example: see airport list